sensor_id;sensor_type;location;lat;lon;timestamp;pressure;altitude;pressure_sealevel;temperature;humidity
44079;BME280;29744;49.078;12.878;2024-03-25T00:03:21;95356.66;;;14.36;38.61
44079;BME280;29744;49.078;12.878;2024-03-25T00:08:21;95355.88;;;14.35;38.50
44079;BME280;29744;49.078;12.878;2024-03-25T00:13:21;95359.69;;;14.34;38.23
44079;BME280;29744;49.078;12.878;2024-03-25T00:18:21;95376.22;;;14.33;38.54
44079;BME280;29744;49.078;12.878;2024-03-25T00:23:22;95374.66;;;14.32;38.28
44079;BME280;29744;49.078;12.878;2024-03-25T00:28:22;95359.59;;;14.31;38.47
44079;BME280;29744;49.078;12.878;2024-03-25T00:33:23;95352.63;;;14.30;38.34
44079;BME280;29744;49.078;12.878;2024-03-25T00:38:24;95356.13;;;14.30;38.34
44079;BME280;29744;49.078;12.878;2024-03-25T00:43:25;95357.59;;;14.28;38.60
44079;BME280;29744;49.078;12.878;2024-03-25T00:48:25;95353.34;;;14.27;38.32
44079;BME280;29744;49.078;12.878;2024-03-25T00:53:25;95358.28;;;14.25;38.47
44079;BME280;29744;49.078;12.878;2024-03-25T00:58:25;95348.28;;;14.25;38.63
44079;BME280;29744;49.078;12.878;2024-03-25T01:03:26;95342.47;;;14.23;38.89
44079;BME280;29744;49.078;12.878;2024-03-25T01:08:26;95347.06;;;14.23;38.70
44079;BME280;29744;49.078;12.878;2024-03-25T01:13:26;95342.78;;;14.22;38.89
44079;BME280;29744;49.078;12.878;2024-03-25T01:18:27;95348.19;;;14.22;38.77
44079;BME280;29744;49.078;12.878;2024-03-25T01:23:27;95343.47;;;14.18;38.42
44079;BME280;29744;49.078;12.878;2024-03-25T01:28:27;95345.38;;;14.18;38.53
44079;BME280;29744;49.078;12.878;2024-03-25T01:33:28;95362.69;;;14.17;38.91
44079;BME280;29744;49.078;12.878;2024-03-25T01:38:28;95343.81;;;14.17;38.99
44079;BME280;29744;49.078;12.878;2024-03-25T01:43:28;95338.78;;;14.15;38.46
44079;BME280;29744;49.078;12.878;2024-03-25T01:48:29;95350.69;;;14.14;38.71
44079;BME280;29744;49.078;12.878;2024-03-25T01:53:30;95341.81;;;14.14;38.52
44079;BME280;29744;49.078;12.878;2024-03-25T01:58:30;95335.66;;;14.13;38.61
44079;BME280;29744;49.078;12.878;2024-03-25T02:03:32;95339.47;;;14.12;38.75
44079;BME280;29744;49.078;12.878;2024-03-25T02:08:33;95336.00;;;14.12;38.76
44079;BME280;29744;49.078;12.878;2024-03-25T02:13:35;95344.88;;;14.12;38.49
44079;BME280;29744;49.078;12.878;2024-03-25T02:18:35;95335.22;;;14.11;38.47
44079;BME280;29744;49.078;12.878;2024-03-25T02:23:39;95341.72;;;14.10;38.75
44079;BME280;29744;49.078;12.878;2024-03-25T02:28:39;95335.56;;;14.10;38.68
44079;BME280;29744;49.078;12.878;2024-03-25T02:33:39;95333.22;;;14.08;38.77
44079;BME280;29744;49.078;12.878;2024-03-25T02:38:42;95327.03;;;14.08;38.79
44079;BME280;29744;49.078;12.878;2024-03-25T02:43:43;95320.84;;;14.07;38.51
44079;BME280;29744;49.078;12.878;2024-03-25T02:48:46;95322.78;;;14.07;38.63
44079;BME280;29744;49.078;12.878;2024-03-25T02:53:46;95323.91;;;14.06;38.60
44079;BME280;29744;49.078;12.878;2024-03-25T02:58:46;95327.38;;;14.06;38.75
44079;BME280;29744;49.078;12.878;2024-03-25T03:03:47;95341.97;;;14.05;38.86
44079;BME280;29744;49.078;12.878;2024-03-25T03:08:47;95339.63;;;14.04;38.85
44079;BME280;29744;49.078;12.878;2024-03-25T03:13:47;95351.19;;;14.04;38.55
44079;BME280;29744;49.078;12.878;2024-03-25T03:18:47;95347.72;;;14.04;38.59
44079;BME280;29744;49.078;12.878;2024-03-25T03:23:48;95348.84;;;14.03;38.84
44079;BME280;29744;49.078;12.878;2024-03-25T03:28:48;95350.75;;;14.02;38.79
44079;BME280;29744;49.078;12.878;2024-03-25T03:33:49;95354.25;;;14.03;38.54
44079;BME280;29744;49.078;12.878;2024-03-25T03:38:52;95363.47;;;14.02;38.86
44079;BME280;29744;49.078;12.878;2024-03-25T03:43:53;95362.69;;;14.01;38.66
44079;BME280;29744;49.078;12.878;2024-03-25T03:48:53;95362.25;;;13.99;38.59
44079;BME280;29744;49.078;12.878;2024-03-25T03:53:53;95363.03;;;14.00;38.83
44079;BME280;29744;49.078;12.878;2024-03-25T03:58:54;95373.81;;;14.00;39.14
44079;BME280;29744;49.078;12.878;2024-03-25T04:03:54;95376.84;;;13.98;39.10
44079;BME280;29744;49.078;12.878;2024-03-25T04:08:55;95389.53;;;13.98;38.94
44079;BME280;29744;49.078;12.878;2024-03-25T04:13:55;95387.19;;;13.96;39.21
44079;BME280;29744;49.078;12.878;2024-03-25T04:18:56;95385.28;;;13.97;39.08
44079;BME280;29744;49.078;12.878;2024-03-25T04:23:56;95390.66;;;13.97;38.64
44079;BME280;29744;49.078;12.878;2024-03-25T04:28:57;95387.53;;;13.95;38.62
44079;BME280;29744;49.078;12.878;2024-03-25T04:33:57;95393.72;;;13.95;38.71
44079;BME280;29744;49.078;12.878;2024-03-25T04:38:57;95397.53;;;13.94;38.90
44079;BME280;29744;49.078;12.878;2024-03-25T04:43:57;95402.56;;;13.96;38.66
44079;BME280;29744;49.078;12.878;2024-03-25T04:48:58;95399.97;;;13.99;38.61
44079;BME280;29744;49.078;12.878;2024-03-25T04:53:58;95404.25;;;14.00;38.78
44079;BME280;29744;49.078;12.878;2024-03-25T04:58:58;95412.50;;;14.07;39.10
44079;BME280;29744;49.078;12.878;2024-03-25T05:04:01;95410.34;;;14.13;38.76
44079;BME280;29744;49.078;12.878;2024-03-25T05:09:02;95415.94;;;14.20;38.78
44079;BME280;29744;49.078;12.878;2024-03-25T05:14:02;95423.09;;;14.28;38.98
44079;BME280;29744;49.078;12.878;2024-03-25T05:19:03;95427.22;;;14.38;38.56
44079;BME280;29744;49.078;12.878;2024-03-25T05:24:04;95438.63;;;14.47;38.89
44079;BME280;29744;49.078;12.878;2024-03-25T05:29:04;95445.41;;;14.57;38.71
44079;BME280;29744;49.078;12.878;2024-03-25T05:34:05;95445.69;;;14.67;38.80
44079;BME280;29744;49.078;12.878;2024-03-25T05:39:08;95447.84;;;14.77;38.60
44079;BME280;29744;49.078;12.878;2024-03-25T05:44:09;95463.53;;;14.88;38.19
44079;BME280;29744;49.078;12.878;2024-03-25T05:49:09;95459.88;;;14.96;38.68
44079;BME280;29744;49.078;12.878;2024-03-25T05:54:09;95465.47;;;15.03;38.33
44079;BME280;29744;49.078;12.878;2024-03-25T05:59:10;95474.88;;;15.09;38.38
44079;BME280;29744;49.078;12.878;2024-03-25T06:04:10;95476.50;;;15.13;37.97
44079;BME280;29744;49.078;12.878;2024-03-25T06:09:10;95486.25;;;15.18;37.93
44079;BME280;29744;49.078;12.878;2024-03-25T06:14:11;95491.75;;;15.22;37.87
44079;BME280;29744;49.078;12.878;2024-03-25T06:19:11;95501.06;;;15.24;38.07
44079;BME280;29744;49.078;12.878;2024-03-25T06:24:11;95504.22;;;15.26;37.65
44079;BME280;29744;49.078;12.878;2024-03-25T06:29:11;95508.13;;;15.29;38.22
44079;BME280;29744;49.078;12.878;2024-03-25T06:34:12;95513.53;;;15.29;38.21
44079;BME280;29744;49.078;12.878;2024-03-25T06:39:17;95509.69;;;15.30;37.83
44079;BME280;29744;49.078;12.878;2024-03-25T06:44:18;95520.50;;;15.30;37.97
44079;BME280;29744;49.078;12.878;2024-03-25T06:49:18;95523.97;;;15.30;37.78
44079;BME280;29744;49.078;12.878;2024-03-25T06:54:19;95532.44;;;15.29;37.67
44079;BME280;29744;49.078;12.878;2024-03-25T06:59:19;95531.31;;;15.30;37.61
44079;BME280;29744;49.078;12.878;2024-03-25T07:04:20;95535.13;;;15.29;37.77
44079;BME280;29744;49.078;12.878;2024-03-25T07:09:21;95535.84;;;15.26;37.59
44079;BME280;29744;49.078;12.878;2024-03-25T07:14:21;95543.16;;;15.25;38.29
44079;BME280;29744;49.078;12.878;2024-03-25T07:19:22;95543.16;;;15.25;38.10
44079;BME280;29744;49.078;12.878;2024-03-25T07:24:22;95545.41;;;15.23;37.75
44079;BME280;29744;49.078;12.878;2024-03-25T07:29:23;95551.16;;;15.22;37.93
44079;BME280;29744;49.078;12.878;2024-03-25T07:34:23;95554.56;;;15.19;38.19
44079;BME280;29744;49.078;12.878;2024-03-25T07:39:24;95550.31;;;15.18;38.12
44079;BME280;29744;49.078;12.878;2024-03-25T07:44:24;95547.94;;;15.16;37.78
44079;BME280;29744;49.078;12.878;2024-03-25T07:49:25;95552.91;;;15.14;38.09
44079;BME280;29744;49.078;12.878;2024-03-25T07:54:25;95558.66;;;15.12;37.93
44079;BME280;29744;49.078;12.878;2024-03-25T07:59:26;95555.53;;;15.10;37.90
44079;BME280;29744;49.078;12.878;2024-03-25T08:04:27;95560.16;;;15.10;37.91
44079;BME280;29744;49.078;12.878;2024-03-25T08:09:27;95556.22;;;15.07;37.73
44079;BME280;29744;49.078;12.878;2024-03-25T08:14:27;95564.66;;;15.06;37.94
44079;BME280;29744;49.078;12.878;2024-03-25T08:19:28;95566.94;;;15.04;37.86
44079;BME280;29744;49.078;12.878;2024-03-25T08:24:28;95571.56;;;15.03;37.71
44079;BME280;29744;49.078;12.878;2024-03-25T08:29:28;95564.59;;;15.02;38.11
44079;BME280;29744;49.078;12.878;2024-03-25T08:34:29;95567.59;;;15.01;37.92
44079;BME280;29744;49.078;12.878;2024-03-25T08:39:29;95567.16;;;14.99;37.89
44079;BME280;29744;49.078;12.878;2024-03-25T08:44:29;95568.28;;;14.98;38.00
44079;BME280;29744;49.078;12.878;2024-03-25T08:49:30;95576.75;;;14.96;37.71
44079;BME280;29744;49.078;12.878;2024-03-25T08:54:30;95585.19;;;14.95;37.66
44079;BME280;29744;49.078;12.878;2024-03-25T08:59:30;95570.91;;;14.94;37.65
44079;BME280;29744;49.078;12.878;2024-03-25T09:04:31;95573.94;;;14.93;38.34
44079;BME280;29744;49.078;12.878;2024-03-25T09:09:31;95575.44;;;14.90;38.10
44079;BME280;29744;49.078;12.878;2024-03-25T09:14:50;95585.44;;;14.90;38.10
44079;BME280;29744;49.078;12.878;2024-03-25T09:19:51;95585.78;;;14.88;37.84
44079;BME280;29744;49.078;12.878;2024-03-25T09:24:51;95589.63;;;14.87;37.89
44079;BME280;29744;49.078;12.878;2024-03-25T09:29:52;95588.03;;;14.86;38.24
44079;BME280;29744;49.078;12.878;2024-03-25T09:34:53;95589.53;;;14.83;38.11
44079;BME280;29744;49.078;12.878;2024-03-25T09:39:54;95580.97;;;14.81;37.86
44079;BME280;29744;49.078;12.878;2024-03-25T09:44:54;95596.41;;;14.81;37.86
44079;BME280;29744;49.078;12.878;2024-03-25T09:49:56;95588.63;;;14.79;38.38
44079;BME280;29744;49.078;12.878;2024-03-25T09:54:59;95584.38;;;14.78;38.14
44079;BME280;29744;49.078;12.878;2024-03-25T09:59:59;95575.84;;;14.76;38.13
44079;BME280;29744;49.078;12.878;2024-03-25T10:04:59;95585.06;;;14.75;37.88
44079;BME280;29744;49.078;12.878;2024-03-25T10:10:06;95576.53;;;14.73;38.50
44079;BME280;29744;49.078;12.878;2024-03-25T10:15:07;95570.34;;;14.73;38.03
44079;BME280;29744;49.078;12.878;2024-03-25T10:20:13;95560.69;;;14.72;38.35
44079;BME280;29744;49.078;12.878;2024-03-25T10:25:30;95564.84;;;14.69;38.32
44079;BME280;29744;49.078;12.878;2024-03-25T10:30:30;95558.66;;;14.69;38.24
44079;BME280;29744;49.078;12.878;2024-03-25T10:35:34;95557.88;;;14.68;38.38
44079;BME280;29744;49.078;12.878;2024-03-25T10:40:38;95554.41;;;14.68;38.34
44079;BME280;29744;49.078;12.878;2024-03-25T10:45:49;95550.91;;;14.67;38.19
44079;BME280;29744;49.078;12.878;2024-03-25T10:50:50;95552.84;;;14.67;38.27
44079;BME280;29744;49.078;12.878;2024-03-25T10:55:54;95555.88;;;14.65;38.54
44079;BME280;29744;49.078;12.878;2024-03-25T11:00:55;95551.63;;;14.64;38.47
44079;BME280;29744;49.078;12.878;2024-03-25T11:05:56;95557.78;;;14.65;38.13
44079;BME280;29744;49.078;12.878;2024-03-25T11:21:03;95545.00;;;14.62;38.54
44079;BME280;29744;49.078;12.878;2024-03-25T11:26:18;95536.47;;;14.60;38.18
44079;BME280;29744;49.078;12.878;2024-03-25T11:31:22;95535.84;;;14.50;38.46
44079;BME280;29744;49.078;12.878;2024-03-25T11:36:25;95537.16;;;14.57;38.46
44079;BME280;29744;49.078;12.878;2024-03-25T11:41:25;95527.94;;;14.58;38.28
44079;BME280;29744;49.078;12.878;2024-03-25T11:46:26;95520.97;;;14.57;38.60
44079;BME280;29744;49.078;12.878;2024-03-25T11:51:26;95516.69;;;14.56;38.63
44079;BME280;29744;49.078;12.878;2024-03-25T11:56:27;95514.34;;;14.54;38.52
44079;BME280;29744;49.078;12.878;2024-03-25T12:01:27;95508.94;;;14.54;38.60
44079;BME280;29744;49.078;12.878;2024-03-25T12:06:28;95506.59;;;14.53;38.58
44079;BME280;29744;49.078;12.878;2024-03-25T12:11:28;95495.00;;;14.52;38.73
44079;BME280;29744;49.078;12.878;2024-03-25T12:16:29;95493.88;;;14.53;38.38
44079;BME280;29744;49.078;12.878;2024-03-25T12:21:31;95491.97;;;14.54;38.93
44079;BME280;29744;49.078;12.878;2024-03-25T12:26:31;95483.44;;;14.52;38.66
44079;BME280;29744;49.078;12.878;2024-03-25T12:31:32;95473.78;;;14.50;38.80
44079;BME280;29744;49.078;12.878;2024-03-25T12:36:35;95475.69;;;14.50;38.85
44079;BME280;29744;49.078;12.878;2024-03-25T12:41:35;95478.38;;;14.50;38.74
44079;BME280;29744;49.078;12.878;2024-03-25T12:46:36;95467.59;;;14.50;38.46
44079;BME280;29744;49.078;12.878;2024-03-25T12:51:36;95466.03;;;14.49;38.94
44079;BME280;29744;49.078;12.878;2024-03-25T12:56:36;95458.28;;;14.47;38.68
44079;BME280;29744;49.078;12.878;2024-03-25T13:01:37;95446.72;;;14.47;38.92
44079;BME280;29744;49.078;12.878;2024-03-25T13:06:37;95439.41;;;14.47;39.03
44079;BME280;29744;49.078;12.878;2024-03-25T13:11:38;95435.13;;;14.46;38.75
44079;BME280;29744;49.078;12.878;2024-03-25T13:16:39;95426.59;;;14.44;37.82
44079;BME280;29744;49.078;12.878;2024-03-25T13:21:39;95425.81;;;14.44;37.61
44079;BME280;29744;49.078;12.878;2024-03-25T13:26:40;95423.22;;;14.47;37.20
44079;BME280;29744;49.078;12.878;2024-03-25T13:31:40;95422.34;;;14.43;36.27
44079;BME280;29744;49.078;12.878;2024-03-25T13:36:41;95415.63;;;14.37;36.53
44079;BME280;29744;49.078;12.878;2024-03-25T13:41:41;95405.19;;;14.36;36.73
44079;BME280;29744;49.078;12.878;2024-03-25T13:46:41;95403.28;;;14.36;36.24
44079;BME280;29744;49.078;12.878;2024-03-25T13:51:41;95399.88;;;14.39;36.65
44079;BME280;29744;49.078;12.878;2024-03-25T13:56:42;95397.63;;;14.41;36.06
44079;BME280;29744;49.078;12.878;2024-03-25T14:01:42;95381.44;;;14.41;36.15
44079;BME280;29744;49.078;12.878;2024-03-25T14:06:43;95371.44;;;14.42;36.06
44079;BME280;29744;49.078;12.878;2024-03-25T14:11:45;95376.84;;;14.42;36.41
44079;BME280;29744;49.078;12.878;2024-03-25T14:16:46;95371.78;;;14.40;36.10
44079;BME280;29744;49.078;12.878;2024-03-25T14:21:48;95362.56;;;14.41;36.31
44079;BME280;29744;49.078;12.878;2024-03-25T14:26:48;95344.81;;;14.40;36.55
44079;BME280;29744;49.078;12.878;2024-03-25T14:31:49;95350.56;;;14.39;36.82
44079;BME280;29744;49.078;12.878;2024-03-25T14:36:49;95334.38;;;14.39;36.62
44079;BME280;29744;49.078;12.878;2024-03-25T14:41:50;95329.31;;;14.37;36.24
44079;BME280;29744;49.078;12.878;2024-03-25T14:46:50;95331.25;;;14.37;36.37
44079;BME280;29744;49.078;12.878;2024-03-25T14:51:51;95327.75;;;14.36;36.53
44079;BME280;29744;49.078;12.878;2024-03-25T14:56:51;95318.09;;;14.35;37.07
44079;BME280;29744;49.078;12.878;2024-03-25T15:01:51;95310.78;;;14.36;36.90
44079;BME280;29744;49.078;12.878;2024-03-25T15:06:52;95313.84;;;14.34;37.19
44079;BME280;29744;49.078;12.878;2024-03-25T15:11:52;95310.38;;;14.34;36.75
44079;BME280;29744;49.078;12.878;2024-03-25T15:16:52;95298.00;;;14.33;37.08
44079;BME280;29744;49.078;12.878;2024-03-25T15:21:53;95303.41;;;14.33;37.09
44079;BME280;29744;49.078;12.878;2024-03-25T15:26:53;95299.13;;;14.32;37.43
44079;BME280;29744;49.078;12.878;2024-03-25T15:31:53;95294.53;;;14.32;37.42
44079;BME280;29744;49.078;12.878;2024-03-25T15:36:54;95286.78;;;14.31;37.11
44079;BME280;29744;49.078;12.878;2024-03-25T15:41:54;95292.97;;;14.31;37.17
44079;BME280;29744;49.078;12.878;2024-03-25T15:46:55;95283.66;;;14.29;37.18
44079;BME280;29744;49.078;12.878;2024-03-25T15:51:55;95277.47;;;14.28;37.35
44079;BME280;29744;49.078;12.878;2024-03-25T15:56:55;95279.41;;;14.28;37.09
44079;BME280;29744;49.078;12.878;2024-03-25T16:01:56;95277.84;;;14.27;37.49
44079;BME280;29744;49.078;12.878;2024-03-25T16:06:56;95272.78;;;14.25;37.45
44079;BME280;29744;49.078;12.878;2024-03-25T16:11:57;95270.53;;;14.27;37.53
44079;BME280;29744;49.078;12.878;2024-03-25T16:16:57;95266.69;;;14.28;37.70
44079;BME280;29744;49.078;12.878;2024-03-25T16:21:58;95254.44;;;14.31;37.77
44079;BME280;29744;49.078;12.878;2024-03-25T16:26:58;95249.13;;;14.34;37.39
44079;BME280;29744;49.078;12.878;2024-03-25T16:31:59;95244.59;;;14.38;37.51
44079;BME280;29744;49.078;12.878;2024-03-25T16:36:59;95245.53;;;14.46;38.05
44079;BME280;29744;49.078;12.878;2024-03-25T16:42:00;95238.38;;;14.54;37.78
44079;BME280;29744;49.078;12.878;2024-03-25T16:47:00;95230.78;;;14.59;37.92
44079;BME280;29744;49.078;12.878;2024-03-25T16:52:01;95237.91;;;14.67;37.34
44079;BME280;29744;49.078;12.878;2024-03-25T16:57:02;95232.31;;;14.76;37.81
44079;BME280;29744;49.078;12.878;2024-03-25T17:02:03;95231.66;;;14.82;37.87
44079;BME280;29744;49.078;12.878;2024-03-25T17:07:04;95222.94;;;14.89;37.57
44079;BME280;29744;49.078;12.878;2024-03-25T17:12:05;95225.00;;;14.96;37.43
44079;BME280;29744;49.078;12.878;2024-03-25T17:17:05;95218.88;;;14.99;37.50
44079;BME280;29744;49.078;12.878;2024-03-25T17:22:05;95219.75;;;15.03;37.37
44079;BME280;29744;49.078;12.878;2024-03-25T17:27:06;95209.38;;;15.05;37.49
44079;BME280;29744;49.078;12.878;2024-03-25T17:32:06;95211.72;;;15.06;37.63
44079;BME280;29744;49.078;12.878;2024-03-25T17:37:06;95210.25;;;15.09;37.39
44079;BME280;29744;49.078;12.878;2024-03-25T17:42:07;95203.69;;;15.10;37.37
44079;BME280;29744;49.078;12.878;2024-03-25T17:47:07;95218.00;;;15.10;37.67
44079;BME280;29744;49.078;12.878;2024-03-25T17:52:08;95229.56;;;15.11;37.70
44079;BME280;29744;49.078;12.878;2024-03-25T17:57:09;95224.16;;;15.11;37.57
44079;BME280;29744;49.078;12.878;2024-03-25T18:02:10;95229.56;;;15.11;37.10
44079;BME280;29744;49.078;12.878;2024-03-25T18:07:11;95225.31;;;15.10;37.31
44079;BME280;29744;49.078;12.878;2024-03-25T18:12:11;95211.81;;;15.10;37.14
44079;BME280;29744;49.078;12.878;2024-03-25T18:17:12;95212.94;;;15.09;37.55
44079;BME280;29744;49.078;12.878;2024-03-25T18:22:12;95217.13;;;15.06;37.59
44079;BME280;29744;49.078;12.878;2024-03-25T18:27:12;95213.66;;;15.06;37.59
44079;BME280;29744;49.078;12.878;2024-03-25T18:32:13;95212.44;;;15.03;37.13
44079;BME280;29744;49.078;12.878;2024-03-25T18:37:13;95208.97;;;15.03;37.28
44079;BME280;29744;49.078;12.878;2024-03-25T18:42:13;95215.47;;;15.02;37.46
44079;BME280;29744;49.078;12.878;2024-03-25T18:47:15;95212.34;;;15.00;37.30
44079;BME280;29744;49.078;12.878;2024-03-25T18:52:16;95208.09;;;14.99;37.65
44079;BME280;29744;49.078;12.878;2024-03-25T18:57:16;95200.34;;;14.97;37.39
44079;BME280;29744;49.078;12.878;2024-03-25T19:02:16;95206.44;;;14.94;37.23
44079;BME280;29744;49.078;12.878;2024-03-25T19:07:17;95204.53;;;14.95;37.45
44079;BME280;29744;49.078;12.878;2024-03-25T19:12:17;95197.56;;;14.94;37.04
44079;BME280;29744;49.078;12.878;2024-03-25T19:17:17;95187.13;;;14.92;37.54
44079;BME280;29744;49.078;12.878;2024-03-25T19:22:18;95191.75;;;14.92;37.13
44079;BME280;29744;49.078;12.878;2024-03-25T19:27:18;95183.22;;;14.90;37.08
44079;BME280;29744;49.078;12.878;2024-03-25T19:32:20;95178.19;;;14.88;37.35
44079;BME280;29744;49.078;12.878;2024-03-25T19:37:20;95180.44;;;14.86;37.49
44079;BME280;29744;49.078;12.878;2024-03-25T19:42:20;95177.31;;;14.84;37.63
44079;BME280;29744;49.078;12.878;2024-03-25T19:47:21;95180.03;;;14.84;37.65
44079;BME280;29744;49.078;12.878;2024-03-25T19:52:21;95166.09;;;14.82;37.47
44079;BME280;29744;49.078;12.878;2024-03-25T19:57:22;95163.75;;;14.80;37.65
44079;BME280;29744;49.078;12.878;2024-03-25T20:02:23;95168.72;;;14.78;37.45
44079;BME280;29744;49.078;12.878;2024-03-25T20:07:23;95160.22;;;14.76;37.61
44079;BME280;29744;49.078;12.878;2024-03-25T20:12:24;95160.56;;;14.75;37.50
44079;BME280;29744;49.078;12.878;2024-03-25T20:17:24;95163.63;;;14.73;37.46
44079;BME280;29744;49.078;12.878;2024-03-25T20:22:24;95166.69;;;14.72;37.28
44079;BME280;29744;49.078;12.878;2024-03-25T20:27:25;95164.34;;;14.70;37.25
44079;BME280;29744;49.078;12.878;2024-03-25T20:32:26;95159.72;;;14.71;37.72
44079;BME280;29744;49.078;12.878;2024-03-25T20:37:26;95157.78;;;14.71;37.65
44079;BME280;29744;49.078;12.878;2024-03-25T20:42:28;95151.25;;;14.72;37.49
44079;BME280;29744;49.078;12.878;2024-03-25T20:47:29;95145.88;;;14.72;37.29
44079;BME280;29744;49.078;12.878;2024-03-25T20:52:29;95141.25;;;14.73;37.38
44079;BME280;29744;49.078;12.878;2024-03-25T20:57:29;95133.94;;;14.73;37.44
44079;BME280;29744;49.078;12.878;2024-03-25T21:02:30;95136.63;;;14.73;37.84
44079;BME280;29744;49.078;12.878;2024-03-25T21:07:30;95125.50;;;14.75;37.57
44079;BME280;29744;49.078;12.878;2024-03-25T21:12:30;95123.56;;;14.75;37.83
44079;BME280;29744;49.078;12.878;2024-03-25T21:17:31;95127.03;;;14.76;37.87
44079;BME280;29744;49.078;12.878;2024-03-25T21:22:31;95117.03;;;14.76;37.93
44079;BME280;29744;49.078;12.878;2024-03-25T21:27:32;95113.56;;;14.76;37.22
44079;BME280;29744;49.078;12.878;2024-03-25T21:32:32;95112.78;;;14.75;37.41
44079;BME280;29744;49.078;12.878;2024-03-25T21:37:32;95097.38;;;14.76;37.73
44079;BME280;29744;49.078;12.878;2024-03-25T21:42:33;95100.06;;;14.76;37.17
44079;BME280;29744;49.078;12.878;2024-03-25T21:47:33;95089.63;;;14.74;37.58
44079;BME280;29744;49.078;12.878;2024-03-25T21:52:34;95088.84;;;14.74;37.60
44079;BME280;29744;49.078;12.878;2024-03-25T21:57:34;95093.81;;;14.72;37.63
44079;BME280;29744;49.078;12.878;2024-03-25T22:02:34;95091.13;;;14.72;37.45
44079;BME280;29744;49.078;12.878;2024-03-25T22:07:35;95085.28;;;14.70;37.85
44079;BME280;29744;49.078;12.878;2024-03-25T22:12:35;95086.44;;;14.69;37.50
44079;BME280;29744;49.078;12.878;2024-03-25T22:17:35;95071.38;;;14.68;37.30
44079;BME280;29744;49.078;12.878;2024-03-25T22:22:36;95067.91;;;14.67;37.65
44079;BME280;29744;49.078;12.878;2024-03-25T22:27:36;95055.56;;;14.66;37.28
44079;BME280;29744;49.078;12.878;2024-03-25T22:32:36;95052.44;;;14.64;37.54
44079;BME280;29744;49.078;12.878;2024-03-25T22:37:36;95053.91;;;14.62;37.43
44079;BME280;29744;49.078;12.878;2024-03-25T22:42:38;95044.28;;;14.61;37.44
44079;BME280;29744;49.078;12.878;2024-03-25T22:47:38;95036.53;;;14.59;37.37
44079;BME280;29744;49.078;12.878;2024-03-25T22:52:38;95026.09;;;14.58;37.59
44079;BME280;29744;49.078;12.878;2024-03-25T22:57:39;95028.38;;;14.56;37.45
44079;BME280;29744;49.078;12.878;2024-03-25T23:02:39;95023.34;;;14.54;37.33
44079;BME280;29744;49.078;12.878;2024-03-25T23:07:39;95009.06;;;14.54;37.47
44079;BME280;29744;49.078;12.878;2024-03-25T23:12:40;95004.03;;;14.52;37.92
44079;BME280;29744;49.078;12.878;2024-03-25T23:17:41;95000.13;;;14.49;37.54
44079;BME280;29744;49.078;12.878;2024-03-25T23:22:41;94995.09;;;14.48;37.44
44079;BME280;29744;49.078;12.878;2024-03-25T23:27:42;94988.13;;;14.47;37.46
44079;BME280;29744;49.078;12.878;2024-03-25T23:32:42;94985.78;;;14.45;37.96
44079;BME280;29744;49.078;12.878;2024-03-25T23:37:42;94972.66;;;14.44;37.44
44079;BME280;29744;49.078;12.878;2024-03-25T23:42:43;94972.25;;;14.42;37.89
44079;BME280;29744;49.078;12.878;2024-03-25T23:47:44;94971.81;;;14.40;37.44
44079;BME280;29744;49.078;12.878;2024-03-25T23:52:44;94958.69;;;14.38;37.75
44079;BME280;29744;49.078;12.878;2024-03-25T23:57:44;94956.00;;;14.38;37.74
